Cedar City, Iowa
Current Conditions -  °F | °C
As of 10:54 AM on Friday 31 Oct 2014 (Local Time) from KALO Reporting Station
Clear Clear  
Wind Chill: 24°   Ceiling: Unl
Heat Index: 35°   Visibility: 10mi
Dew Point: 20°   Wind: 22mph
Humidity: 54%   Direction: 10°N
Pressure: 30.45"   Gusts: 26mph
Location:  42.5035°N, 92.4936°W
Report Text: KALO 311554Z 01019G23KT 10SM CLR 02/M07 A3045 RMK AO2 PK WND 01030/1515 RAB14E31 SLP320 P0000 T00171067
Loading
Personal Weather Stations






























Interactive Weather Map
Tropical Storm Tracking
New forecast layout! Learn more

10-Day Weather Forecast

Advertisements
Track Severe Weather on mobile